Time;durP1;ratioP1;P1;durP2;ratioP2;P2;SDS_P1;SDS_P2;PMS_P1;PMS_P2;Temp;Humidity;BMP_temperature;BMP_pressure;BME280_temperature;BME280_humidity;BME280_pressure;Samples;Min_cycle;Max_cycle;Signal;HPM_P1;HPM_P2
2023/09/06 00:03:20;;;;;;;;;;;;;;;22.97;50.06;96083.41;10519863;28;1518;-62
2023/09/06 00:08:20;;;;;;;;;;;;;;;22.96;50.16;96079.19;10493725;28;1178;-62
2023/09/06 00:13:21;;;;;;;;;;;;;;;22.96;49.95;96073.09;10489627;28;1913;-62
2023/09/06 00:18:23;;;;;;;;;;;;;;;22.97;50.01;96072.06;10485088;28;2591;-62
2023/09/06 00:23:24;;;;;;;;;;;;;;;22.96;49.95;96065.97;10488427;28;1134;-62
2023/09/06 00:28:25;;;;;;;;;;;;;;;22.95;49.90;96061.75;10509765;28;1470;-62
2023/09/06 00:33:26;;;;;;;;;;;;;;;22.96;49.74;96065.19;10485423;28;1902;-62
2023/09/06 00:38:28;;;;;;;;;;;;;;;22.95;49.87;96069.69;10483124;28;1123;-62
2023/09/06 00:43:35;;;;;;;;;;;;;;;22.95;49.81;96068.91;10482945;28;1346;-62
2023/09/06 00:48:35;;;;;;;;;;;;;;;22.95;50.02;96063.63;10478359;28;1506;-62
2023/09/06 00:53:36;;;;;;;;;;;;;;;22.95;49.90;96064.41;10493726;28;5600;-62
2023/09/06 00:58:37;;;;;;;;;;;;;;;22.94;49.93;96068.09;10484516;28;1708;-62
2023/09/06 01:03:40;;;;;;;;;;;;;;;22.94;49.77;96060.19;10484179;28;1967;-62
2023/09/06 01:08:41;;;;;;;;;;;;;;;22.94;50.01;96069.94;10491842;28;1489;-62
2023/09/06 01:13:41;;;;;;;;;;;;;;;22.95;49.58;96071.53;10474781;28;2786;-62
2023/09/06 01:18:42;;;;;;;;;;;;;;;22.94;49.77;96069.94;10495963;28;1585;-62
2023/09/06 01:23:43;;;;;;;;;;;;;;;22.94;49.91;96064.66;10466903;28;1577;-62
2023/09/06 01:28:43;;;;;;;;;;;;;;;22.94;49.55;96067.31;10464784;28;1529;-62
2023/09/06 01:33:43;;;;;;;;;;;;;;;22.92;49.89;96062.31;10474724;28;1906;-62
2023/09/06 01:38:43;;;;;;;;;;;;;;;22.94;49.76;96062.81;10469463;28;1526;-62
2023/09/06 01:43:44;;;;;;;;;;;;;;;22.93;49.57;96060.47;10473267;28;1561;-62
2023/09/06 01:48:45;;;;;;;;;;;;;;;22.92;49.76;96048.28;10502292;28;1629;-62
2023/09/06 01:53:45;;;;;;;;;;;;;;;22.93;49.77;96055.19;10492691;28;5042;-62
2023/09/06 01:58:46;;;;;;;;;;;;;;;22.92;49.71;96053.59;10483437;28;1561;-62
2023/09/06 02:03:46;;;;;;;;;;;;;;;22.92;49.49;96043.00;10468350;28;1029;-62
2023/09/06 02:08:46;;;;;;;;;;;;;;;22.92;49.77;96043.00;10480846;28;2287;-62
2023/09/06 02:13:46;;;;;;;;;;;;;;;22.93;49.52;96044.59;10480421;28;1977;-62
2023/09/06 02:18:47;;;;;;;;;;;;;;;22.92;49.43;96043.00;10479972;28;1043;-62
2023/09/06 02:23:47;;;;;;;;;;;;;;;22.91;49.39;96038.81;10469639;28;1565;-62
2023/09/06 02:28:50;;;;;;;;;;;;;;;22.91;49.40;96047.53;10475891;28;1524;-62
2023/09/06 02:33:50;;;;;;;;;;;;;;;22.91;49.36;96041.44;10474799;28;1969;-62
2023/09/06 02:38:51;;;;;;;;;;;;;;;22.90;49.50;96045.16;10481895;28;1446;-62
2023/09/06 02:43:51;;;;;;;;;;;;;;;22.90;49.53;96050.44;10483157;28;1493;-62
2023/09/06 02:48:52;;;;;;;;;;;;;;;22.91;49.56;96044.09;10477659;28;1517;-62
2023/09/06 02:53:56;;;;;;;;;;;;;;;22.91;49.50;96044.09;10483514;28;5053;-62
2023/09/06 02:58:59;;;;;;;;;;;;;;;22.90;49.48;96053.88;10459898;28;1346;-62
2023/09/06 03:03:59;;;;;;;;;;;;;;;22.90;49.50;96048.59;10486214;28;1118;-62
2023/09/06 03:09:00;;;;;;;;;;;;;;;22.90;49.56;96055.72;10483174;28;2296;-62
2023/09/06 03:14:02;;;;;;;;;;;;;;;22.90;49.35;96058.38;10481151;28;1906;-62
2023/09/06 03:19:02;;;;;;;;;;;;;;;22.89;49.52;96056.81;10480458;28;1388;-61
2023/09/06 03:24:03;;;;;;;;;;;;;;;22.88;49.34;96063.94;10483872;28;1011;-62
2023/09/06 03:29:04;;;;;;;;;;;;;;;22.88;49.34;96066.59;10483382;28;1567;-62
2023/09/06 03:34:04;;;;;;;;;;;;;;;22.89;49.38;96062.09;10493211;28;1909;-62
2023/09/06 03:39:06;;;;;;;;;;;;;;;22.88;49.42;96066.59;10492435;28;1348;-62
2023/09/06 03:44:07;;;;;;;;;;;;;;;22.89;49.44;96064.75;10488532;28;1382;-61
2023/09/06 03:49:08;;;;;;;;;;;;;;;22.88;49.50;96063.94;10483695;28;1350;-62
2023/09/06 03:54:09;;;;;;;;;;;;;;;22.88;49.44;96071.06;10490101;28;5092;-62
2023/09/06 03:59:09;;;;;;;;;;;;;;;22.88;49.30;96068.44;10505647;28;1342;-61
2023/09/06 04:04:10;;;;;;;;;;;;;;;22.88;49.20;96060.50;10484417;28;2368;-62
2023/09/06 04:09:13;;;;;;;;;;;;;;;22.86;49.14;96063.44;10488324;28;1449;-62
2023/09/06 04:14:14;;;;;;;;;;;;;;;22.86;49.32;96068.72;10483613;28;1914;-62
2023/09/06 04:19:14;;;;;;;;;;;;;;;22.86;49.37;96071.38;10476718;28;1047;-62
2023/09/06 04:24:14;;;;;;;;;;;;;;;22.87;49.36;96072.97;10491171;28;1372;-62
2023/09/06 04:29:14;;;;;;;;;;;;;;;22.87;49.35;96078.25;10490757;28;1521;-62
2023/09/06 04:34:15;;;;;;;;;;;;;;;22.86;49.20;96074.00;10488831;28;1918;-62
2023/09/06 04:39:17;;;;;;;;;;;;;;;22.87;49.15;96074.81;10482691;28;1422;-62
2023/09/06 04:44:17;;;;;;;;;;;;;;;22.87;49.30;96082.72;10477181;28;1465;-61
2023/09/06 04:49:17;;;;;;;;;;;;;;;22.86;49.14;96081.16;10490939;28;1431;-62
2023/09/06 04:54:17;;;;;;;;;;;;;;;22.86;49.18;96083.78;10493329;28;5189;-62
2023/09/06 04:59:18;;;;;;;;;;;;;;;22.86;49.14;96091.72;10484864;28;2312;-62
2023/09/06 05:04:19;;;;;;;;;;;;;;;22.85;49.17;96098.09;10485745;28;1459;-61
2023/09/06 05:09:19;;;;;;;;;;;;;;;22.85;49.00;96095.44;10480337;28;1495;-62
2023/09/06 05:14:20;;;;;;;;;;;;;;;22.86;49.18;96104.94;10470280;28;1909;-62
2023/09/06 05:19:21;;;;;;;;;;;;;;;22.85;49.21;96106.00;10490109;28;1560;-62
2023/09/06 05:24:21;;;;;;;;;;;;;;;22.85;49.18;96111.31;10484749;28;1593;-62
2023/09/06 05:29:21;;;;;;;;;;;;;;;22.84;49.19;96110.50;10488013;28;1541;-62
2023/09/06 05:34:22;;;;;;;;;;;;;;;22.85;49.15;96121.88;10475679;28;1967;-62
2023/09/06 05:39:22;;;;;;;;;;;;;;;22.85;49.03;96135.09;10472399;28;1616;-61
2023/09/06 05:44:23;;;;;;;;;;;;;;;22.85;49.17;96127.16;10485035;28;1563;-62
2023/09/06 05:49:24;;;;;;;;;;;;;;;22.84;48.95;96130.84;10491701;28;1492;-62
2023/09/06 05:54:24;;;;;;;;;;;;;;;22.84;49.10;96141.44;10485065;28;5163;-62
2023/09/06 05:59:24;;;;;;;;;;;;;;;22.84;49.16;96136.94;10476707;28;1458;-62
2023/09/06 06:04:25;;;;;;;;;;;;;;;22.85;49.10;96143.03;10472253;28;1495;-62
2023/09/06 06:09:25;;;;;;;;;;;;;;;22.85;49.08;96143.03;10481346;28;1589;-61
2023/09/06 06:14:28;;;;;;;;;;;;;;;22.83;48.92;96145.94;10485316;28;1910;-62
2023/09/06 06:19:28;;;;;;;;;;;;;;;22.84;48.90;96152.78;10487635;28;963;-62
2023/09/06 06:24:29;;;;;;;;;;;;;;;22.82;48.94;96149.66;10468986;28;1395;-61
2023/09/06 06:29:29;;;;;;;;;;;;;;;22.83;48.92;96155.72;10484683;28;1430;-62
2023/09/06 06:34:29;;;;;;;;;;;;;;;22.83;48.99;96147.78;10474199;28;1913;-62
2023/09/06 06:39:30;;;;;;;;;;;;;;;22.84;48.91;96157.28;10494893;28;1403;-62
2023/09/06 06:44:30;;;;;;;;;;;;;;;22.83;49.11;96153.09;10487186;28;1351;-62
2023/09/06 06:49:30;;;;;;;;;;;;;;;22.83;48.88;96151.22;10484715;28;1026;-62
2023/09/06 06:54:30;;;;;;;;;;;;;;;22.84;48.92;96149.34;10480226;28;5049;-62
2023/09/06 06:59:34;;;;;;;;;;;;;;;22.84;48.91;96146.72;10481466;28;1371;-62
2023/09/06 07:04:34;;;;;;;;;;;;;;;22.84;49.09;96144.06;10504913;28;1048;-62
2023/09/06 07:09:36;;;;;;;;;;;;;;;22.83;49.30;96145.16;10499074;28;1380;-62
2023/09/06 07:14:36;;;;;;;;;;;;;;;22.84;49.02;96144.06;10492025;28;1909;-62
2023/09/06 07:19:36;;;;;;;;;;;;;;;22.83;48.95;96145.16;10511255;28;1121;-62
2023/09/06 07:24:36;;;;;;;;;;;;;;;22.83;48.98;96145.16;10485615;28;1399;-62
2023/09/06 07:29:36;;;;;;;;;;;;;;;22.84;48.84;96141.44;10495761;28;1425;-62
2023/09/06 07:34:37;;;;;;;;;;;;;;;22.83;49.13;96142.50;10495660;28;1906;-62
2023/09/06 07:39:37;;;;;;;;;;;;;;;22.84;48.98;96149.34;10492475;28;1347;-62
2023/09/06 07:44:37;;;;;;;;;;;;;;;22.84;49.19;96149.34;10491733;28;1347;-62
2023/09/06 07:49:38;;;;;;;;;;;;;;;22.82;49.04;96147.00;10486094;28;2349;-62
2023/09/06 07:54:38;;;;;;;;;;;;;;;22.83;49.02;96145.16;10485750;28;5034;-62
2023/09/06 07:59:38;;;;;;;;;;;;;;;22.82;49.10;96152.28;10493598;28;1524;-61
2023/09/06 08:04:41;;;;;;;;;;;;;;;22.83;49.19;96150.44;10487168;28;1582;-62
2023/09/06 08:09:41;;;;;;;;;;;;;;;22.84;49.18;96146.72;10484144;28;1467;-61
2023/09/06 08:14:42;;;;;;;;;;;;;;;22.84;49.47;96146.72;10483197;28;1906;-62
2023/09/06 08:19:42;;;;;;;;;;;;;;;22.84;49.24;96149.34;10478713;28;1508;-62
2023/09/06 08:24:42;;;;;;;;;;;;;;;22.84;49.16;96152.00;10492091;28;1466;-62
2023/09/06 08:29:42;;;;;;;;;;;;;;;22.85;49.39;96158.88;10452790;28;1628;-62
2023/09/06 08:34:43;;;;;;;;;;;;;;;22.85;49.33;96156.25;10485529;28;1910;-62
2023/09/06 08:39:43;;;;;;;;;;;;;;;22.85;49.39;96162.31;10482523;28;1438;-62
2023/09/06 08:44:44;;;;;;;;;;;;;;;22.85;49.37;96159.69;10469993;28;1399;-62
2023/09/06 08:49:45;;;;;;;;;;;;;;;22.85;49.30;96157.03;10478150;28;1155;-62
2023/09/06 08:54:46;;;;;;;;;;;;;;;22.87;49.32;96151.47;10486564;28;5104;-62
2023/09/06 08:59:47;;;;;;;;;;;;;;;22.86;49.57;96160.44;10481729;28;1339;-61
2023/09/06 09:04:47;;;;;;;;;;;;;;;22.88;49.37;96160.94;10475355;28;1043;-61
2023/09/06 09:10:21;;;;;;;;;;;;;;;22.88;49.27;96169.69;10475703;28;1434;-61
2023/09/06 09:15:22;;;;;;;;;;;;;;;22.89;49.34;96170.47;10459137;28;1960;-62
2023/09/06 09:20:22;;;;;;;;;;;;;;;22.89;49.40;96162.53;10492734;28;1039;-62
2023/09/06 09:25:23;;;;;;;;;;;;;;;22.89;49.49;96155.41;10486204;28;1382;-62
2023/09/06 09:30:23;;;;;;;;;;;;;;;22.89;49.59;96159.91;10477724;28;1402;-61
2023/09/06 09:35:25;;;;;;;;;;;;;;;22.90;49.55;96151.69;10462803;28;1914;-62
2023/09/06 09:40:32;;;;;;;;;;;;;;;22.91;49.38;96155.91;10479122;28;1367;-62
2023/09/06 09:45:39;;;;;;;;;;;;;;;22.92;49.40;96156.69;10489428;28;1522;-61
2023/09/06 09:50:41;;;;;;;;;;;;;;;22.92;49.46;96160.13;10492363;28;1975;-62
2023/09/06 09:55:41;;;;;;;;;;;;;;;22.93;49.31;96159.06;10479202;28;4928;-61
2023/09/06 10:00:42;;;;;;;;;;;;;;;22.93;49.37;96155.63;10477285;28;1470;-61
2023/09/06 10:05:42;;;;;;;;;;;;;;;22.95;49.52;96153.50;10473719;28;1483;-61
2023/09/06 10:10:42;;;;;;;;;;;;;;;22.95;49.45;96158.78;10496900;28;1906;-61
2023/09/06 10:15:43;;;;;;;;;;;;;;;22.95;49.71;96154.28;10468280;28;1317;-61
2023/09/06 10:20:43;;;;;;;;;;;;;;;22.94;49.69;96158.00;10480804;28;1039;-61
2023/09/06 10:25:49;;;;;;;;;;;;;;;22.96;49.40;96153.22;10481925;28;1361;-61
2023/09/06 10:30:51;;;;;;;;;;;;;;;22.97;49.63;96156.66;10480919;28;1955;-61
2023/09/06 10:35:56;;;;;;;;;;;;;;;22.97;49.43;96154.81;10480601;28;2247;-61
2023/09/06 10:40:56;;;;;;;;;;;;;;;22.99;49.55;96159.81;10487685;28;1669;-61
2023/09/06 10:45:57;;;;;;;;;;;;;;;22.98;49.45;96160.88;10486286;28;1573;-61
2023/09/06 10:51:07;;;;;;;;;;;;;;;22.99;49.49;96159.81;10482197;28;1963;-61
2023/09/06 10:56:07;;;;;;;;;;;;;;;22.99;49.57;96142.09;10475688;28;5104;-61
2023/09/06 11:01:18;;;;;;;;;;;;;;;23.00;49.83;96154.22;10497617;28;1398;-61
2023/09/06 11:06:21;;;;;;;;;;;;;;;23.00;49.50;96146.28;10485581;28;1346;-61
2023/09/06 11:11:21;;;;;;;;;;;;;;;23.02;49.69;96148.69;10494168;28;1905;-60
2023/09/06 11:16:24;;;;;;;;;;;;;;;23.02;49.90;96138.09;10476789;28;1375;-61
2023/09/06 11:21:24;;;;;;;;;;;;;;;23.03;49.77;96134.38;10482191;28;1076;-61
2023/09/06 11:26:28;;;;;;;;;;;;;;;23.05;49.76;96145.47;10470860;28;1608;-61
2023/09/06 11:31:33;;;;;;;;;;;;;;;23.04;49.60;96144.66;10464412;28;2338;-61
2023/09/06 11:36:36;;;;;;;;;;;;;;;23.05;49.62;96142.81;10490866;28;1553;-61
2023/09/06 11:41:37;;;;;;;;;;;;;;;23.06;49.82;96139.13;10491605;28;1664;-61
2023/09/06 11:46:38;;;;;;;;;;;;;;;23.07;49.68;96138.03;10487301;28;1554;-61
2023/09/06 11:51:41;;;;;;;;;;;;;;;23.08;49.78;96142.28;10488461;28;1950;-61
2023/09/06 11:56:46;;;;;;;;;;;;;;;23.08;49.71;96131.69;10463346;28;5241;-61
2023/09/06 12:01:52;;;;;;;;;;;;;;;23.08;50.07;96127.19;10494038;28;1488;-61
2023/09/06 12:06:54;;;;;;;;;;;;;;;23.09;49.92;96114.75;10497804;28;1378;-61
2023/09/06 12:11:55;;;;;;;;;;;;;;;23.10;50.13;96119.75;10491264;28;1906;-61
2023/09/06 12:16:56;;;;;;;;;;;;;;;23.10;50.04;96111.06;10479707;28;1427;-62
2023/09/06 12:21:56;;;;;;;;;;;;;;;23.11;49.79;96100.19;10466779;28;1339;-62
2023/09/06 12:26:58;;;;;;;;;;;;;;;23.12;49.93;96098.34;10491527;28;1038;-60
2023/09/06 12:31:59;;;;;;;;;;;;;;;23.12;50.22;96106.28;10486107;28;2230;-61
2023/09/06 12:36:59;;;;;;;;;;;;;;;23.12;50.38;96104.38;10498435;28;1006;-62
2023/09/06 12:42:00;;;;;;;;;;;;;;;23.14;50.08;96098.84;10488238;28;1780;-61
2023/09/06 12:47:16;;;;;;;;;;;;;;;23.15;50.00;96101.19;10479703;28;1395;-61
2023/09/06 12:52:20;;;;;;;;;;;;;;;23.15;50.26;96098.56;10483933;28;1909;-61
2023/09/06 12:57:20;;;;;;;;;;;;;;;23.16;50.42;96091.41;10488016;28;1572;-62
2023/09/06 13:02:20;;;;;;;;;;;;;;;23.16;50.14;96089.53;10485461;28;1850;-61
2023/09/06 13:07:21;;;;;;;;;;;;;;;23.17;50.39;96085.03;10513575;27;1445;-62
2023/09/06 13:12:21;;;;;;;;;;;;;;;23.16;50.35;96071.03;10480871;28;1979;-61
2023/09/06 13:17:21;;;;;;;;;;;;;;;23.18;50.07;96078.69;10476663;28;1411;-62
2023/09/06 13:22:22;;;;;;;;;;;;;;;23.18;50.24;96068.13;10509199;28;1389;-62
2023/09/06 13:27:22;;;;;;;;;;;;;;;23.18;50.23;96065.47;10494507;28;2303;-62
2023/09/06 13:32:24;;;;;;;;;;;;;;;23.19;49.98;96062.53;10479968;28;1917;-62
2023/09/06 13:37:26;;;;;;;;;;;;;;;23.19;50.15;96059.91;10491408;28;1502;-61
2023/09/06 13:42:28;;;;;;;;;;;;;;;23.19;50.05;96054.59;10488074;28;1499;-61
2023/09/06 13:47:28;;;;;;;;;;;;;;;23.19;50.13;96045.88;10471432;28;1421;-61
2023/09/06 13:52:28;;;;;;;;;;;;;;;23.20;50.36;96053.56;10493758;28;5096;-61
2023/09/06 13:57:28;;;;;;;;;;;;;;;23.21;50.19;96051.66;10489461;28;1444;-62
2023/09/06 14:02:29;;;;;;;;;;;;;;;23.21;50.11;96046.38;10480782;28;1343;-61
2023/09/06 14:07:29;;;;;;;;;;;;;;;23.21;50.34;96047.19;10482562;28;1335;-61
2023/09/06 14:12:29;;;;;;;;;;;;;;;23.22;50.26;96038.19;10475512;28;1909;-61
2023/09/06 14:17:30;;;;;;;;;;;;;;;23.21;50.18;96038.44;10479947;28;1354;-61
2023/09/06 14:22:30;;;;;;;;;;;;;;;23.21;50.26;96036.59;10486019;28;2264;-61
2023/09/06 14:27:30;;;;;;;;;;;;;;;23.22;50.19;96026.81;10485231;28;1578;-61
2023/09/06 14:32:30;;;;;;;;;;;;;;;23.23;50.41;96028.38;10483201;28;1887;-61
2023/09/06 14:37:31;;;;;;;;;;;;;;;23.23;50.24;96028.38;10479280;28;1347;-61
2023/09/06 14:42:32;;;;;;;;;;;;;;;23.22;50.50;96017.03;10500807;28;1575;-61
2023/09/06 14:47:32;;;;;;;;;;;;;;;23.23;50.24;96020.44;10510821;28;1473;-62
2023/09/06 14:52:32;;;;;;;;;;;;;;;23.23;50.46;96023.09;10498517;28;5203;-61
2023/09/06 14:57:33;;;;;;;;;;;;;;;23.23;50.27;96023.88;10497002;28;913;-61
2023/09/06 15:02:33;;;;;;;;;;;;;;;23.22;50.25;96018.88;10481820;28;1477;-61
2023/09/06 15:07:34;;;;;;;;;;;;;;;23.23;50.19;96021.22;10483155;28;1086;-61
2023/09/06 15:12:36;;;;;;;;;;;;;;;23.23;50.26;96015.94;10479570;28;1913;-61
2023/09/06 15:17:36;;;;;;;;;;;;;;;23.23;50.44;96020.44;10491920;28;2410;-61
2023/09/06 15:22:37;;;;;;;;;;;;;;;23.23;50.41;96017.78;10497844;28;1557;-62
2023/09/06 15:27:37;;;;;;;;;;;;;;;23.24;50.21;96022.03;10470981;28;1214;-61
2023/09/06 15:32:38;;;;;;;;;;;;;;;23.24;50.40;96016.75;10487963;28;1977;-61
2023/09/06 15:37:53;;;;;;;;;;;;;;;23.23;50.03;96020.44;10484110;28;1371;-61
2023/09/06 15:42:54;;;;;;;;;;;;;;;23.23;50.23;96013.31;10499979;28;1146;-61
2023/09/06 15:47:55;;;;;;;;;;;;;;;23.23;49.91;96026.53;10489965;28;1341;-61
2023/09/06 15:52:55;;;;;;;;;;;;;;;23.23;50.24;96015.16;10486218;28;5208;-61
2023/09/06 15:57:56;;;;;;;;;;;;;;;23.22;50.04;96022.31;10479836;28;1406;-61
2023/09/06 16:02:56;;;;;;;;;;;;;;;23.22;50.13;96016.22;10482648;28;1325;-61
2023/09/06 16:07:57;;;;;;;;;;;;;;;23.21;50.14;96010.16;10478912;28;1343;-61
2023/09/06 16:12:57;;;;;;;;;;;;;;;23.21;50.21;96023.38;10498363;28;1906;-61
2023/09/06 16:17:57;;;;;;;;;;;;;;;23.21;50.10;96019.94;10486038;28;1471;-61
2023/09/06 16:22:59;;;;;;;;;;;;;;;23.21;49.73;96022.56;10494807;28;1450;-62
2023/09/06 16:27:59;;;;;;;;;;;;;;;23.21;49.98;96020.72;10480113;28;1277;-61
2023/09/06 16:32:59;;;;;;;;;;;;;;;23.21;50.01;96023.38;10488444;28;1898;-61
2023/09/06 16:38:00;;;;;;;;;;;;;;;23.21;50.06;96019.94;10496219;28;1330;-61
2023/09/06 16:43:00;;;;;;;;;;;;;;;23.21;49.77;96019.94;10499102;28;1106;-61
2023/09/06 16:48:00;;;;;;;;;;;;;;;23.20;50.01;96026.31;10484372;28;1603;-61
2023/09/06 16:53:00;;;;;;;;;;;;;;;23.21;49.79;96030.50;10485001;28;5073;-62
2023/09/06 16:58:01;;;;;;;;;;;;;;;23.20;49.63;96034.25;10495477;28;923;-61
2023/09/06 17:03:01;;;;;;;;;;;;;;;23.20;50.00;96023.66;10476639;28;1548;-61
2023/09/06 17:08:01;;;;;;;;;;;;;;;23.20;50.07;96023.66;10496241;28;1430;-62
2023/09/06 17:13:02;;;;;;;;;;;;;;;23.20;49.92;96023.66;10493405;28;2235;-62
2023/09/06 17:18:02;;;;;;;;;;;;;;;23.20;49.92;96028.97;10479578;28;1610;-62
2023/09/06 17:23:05;;;;;;;;;;;;;;;23.19;49.70;96028.16;10480228;28;1467;-62
2023/09/06 17:28:07;;;;;;;;;;;;;;;23.19;49.91;96028.16;10474839;28;1684;-61
2023/09/06 17:33:14;;;;;;;;;;;;;;;23.19;49.81;96035.31;10480085;28;1902;-60
2023/09/06 17:38:15;;;;;;;;;;;;;;;23.20;49.83;96034.25;10488731;28;1613;-61
2023/09/06 17:43:15;;;;;;;;;;;;;;;23.19;49.87;96030.81;10486388;28;1501;-61
2023/09/06 17:48:17;;;;;;;;;;;;;;;23.19;49.71;96027.38;10483210;28;1602;-61
2023/09/06 17:53:20;;;;;;;;;;;;;;;23.18;49.77;96033.75;10481176;28;5017;-61
2023/09/06 17:58:22;;;;;;;;;;;;;;;23.18;49.65;96036.38;10474615;28;1601;-61
2023/09/06 18:03:23;;;;;;;;;;;;;;;23.18;49.75;96039.81;10511717;28;1848;-61
2023/09/06 18:08:23;;;;;;;;;;;;;;;23.18;49.66;96031.91;10473718;28;2477;-61
2023/09/06 18:13:23;;;;;;;;;;;;;;;23.18;49.93;96036.38;10464636;28;1977;-61
2023/09/06 18:18:24;;;;;;;;;;;;;;;23.18;50.04;96031.09;10470867;28;1594;-61
2023/09/06 18:23:24;;;;;;;;;;;;;;;23.17;50.01;96040.88;10480519;28;1552;-61
2023/09/06 18:28:24;;;;;;;;;;;;;;;23.18;49.70;96052.25;10477415;28;1443;-61
2023/09/06 18:33:25;;;;;;;;;;;;;;;23.18;49.73;96058.34;10485451;28;1913;-61
2023/09/06 18:38:26;;;;;;;;;;;;;;;23.17;49.95;96061.25;10484463;28;1382;-61
2023/09/06 18:43:27;;;;;;;;;;;;;;;23.18;49.85;96060.19;10481166;28;987;-61
2023/09/06 18:48:27;;;;;;;;;;;;;;;23.18;50.00;96057.53;10475316;28;1660;-61
2023/09/06 18:53:27;;;;;;;;;;;;;;;23.17;49.64;96061.25;10477273;28;5053;-62
2023/09/06 18:58:28;;;;;;;;;;;;;;;23.17;49.92;96061.25;10483098;28;1058;-62
2023/09/06 19:03:28;;;;;;;;;;;;;;;23.17;49.95;96063.88;10478117;28;2283;-62
2023/09/06 19:08:28;;;;;;;;;;;;;;;23.17;50.00;96067.31;10485728;28;1534;-62
2023/09/06 19:13:28;;;;;;;;;;;;;;;23.17;49.65;96062.03;10485414;28;1986;-63
2023/09/06 19:18:28;;;;;;;;;;;;;;;23.17;50.02;96061.25;10473591;28;1750;-63
2023/09/06 19:23:29;;;;;;;;;;;;;;;23.17;49.87;96058.59;10471267;28;1347;-63
2023/09/06 19:28:29;;;;;;;;;;;;;;;23.17;49.72;96061.25;10483537;28;1372;-63
2023/09/06 19:33:29;;;;;;;;;;;;;;;23.16;49.90;96060.44;10486564;28;1902;-62
2023/09/06 19:38:30;;;;;;;;;;;;;;;23.16;49.76;96067.63;10490436;28;1370;-63
2023/09/06 19:43:30;;;;;;;;;;;;;;;23.15;49.95;96066.81;10474952;28;1186;-63
2023/09/06 19:48:30;;;;;;;;;;;;;;;23.17;49.83;96058.59;10472790;28;1608;-63
2023/09/06 19:53:30;;;;;;;;;;;;;;;23.16;49.88;96055.16;10503810;28;5060;-63
2023/09/06 19:58:31;;;;;;;;;;;;;;;23.15;49.90;96053.59;10482232;28;2252;-63
2023/09/06 20:03:31;;;;;;;;;;;;;;;23.16;49.86;96051.75;10493663;28;1579;-63
2023/09/06 20:08:31;;;;;;;;;;;;;;;23.13;49.75;96050.44;10489682;28;1157;-62
2023/09/06 20:13:32;;;;;;;;;;;;;;;23.15;49.69;96042.22;10504070;28;1898;-63
2023/09/06 20:18:32;;;;;;;;;;;;;;;23.14;49.96;96038.78;10483015;28;1627;-62
2023/09/06 20:23:33;;;;;;;;;;;;;;;23.15;49.82;96042.22;10493644;28;1363;-63
2023/09/06 20:28:33;;;;;;;;;;;;;;;23.15;49.95;96047.50;10494251;28;1348;-62
2023/09/06 20:33:34;;;;;;;;;;;;;;;23.15;49.81;96058.09;10471118;28;1902;-62
2023/09/06 20:38:34;;;;;;;;;;;;;;;23.15;49.91;96052.81;10486099;28;1338;-62
2023/09/06 20:43:38;;;;;;;;;;;;;;;23.14;49.94;96054.66;10481910;28;1103;-62
2023/09/06 20:48:40;;;;;;;;;;;;;;;23.14;49.89;96049.38;10488235;28;1493;-62
2023/09/06 20:53:41;;;;;;;;;;;;;;;23.13;49.85;96047.81;10493488;28;5120;-63
2023/09/06 20:58:41;;;;;;;;;;;;;;;23.13;49.89;96036.44;10489606;28;2467;-61
2023/09/06 21:03:41;;;;;;;;;;;;;;;23.14;49.84;96041.44;10485201;28;1471;-63
2023/09/06 21:08:41;;;;;;;;;;;;;;;23.14;49.97;96040.66;10482507;28;1576;-63
2023/09/06 21:13:42;;;;;;;;;;;;;;;23.14;49.69;96032.72;10479714;28;1917;-63
2023/09/06 21:18:42;;;;;;;;;;;;;;;23.13;49.90;96031.94;10499130;28;1506;-63
2023/09/06 21:23:42;;;;;;;;;;;;;;;23.13;49.92;96029.28;10489733;28;1553;-63
2023/09/06 21:28:43;;;;;;;;;;;;;;;23.13;49.78;96031.16;10496053;28;1514;-63
2023/09/06 21:33:43;;;;;;;;;;;;;;;23.14;49.71;96030.09;10481068;28;1914;-62
2023/09/06 21:38:43;;;;;;;;;;;;;;;23.13;49.67;96033.78;10509496;28;1394;-62
2023/09/06 21:43:43;;;;;;;;;;;;;;;23.13;49.77;96041.72;10515316;28;1394;-63
2023/09/06 21:48:44;;;;;;;;;;;;;;;23.13;49.68;96039.06;10493488;28;1027;-63
2023/09/06 21:53:44;;;;;;;;;;;;;;;23.14;49.93;96045.97;10516535;28;2241;-63
2023/09/06 21:58:44;;;;;;;;;;;;;;;23.13;49.80;96041.72;10501351;28;1513;-63
2023/09/06 22:03:45;;;;;;;;;;;;;;;23.13;49.83;96036.44;10476340;28;1591;-63
2023/09/06 22:08:46;;;;;;;;;;;;;;;23.13;49.91;96042.50;10478544;28;1590;-63
2023/09/06 22:13:48;;;;;;;;;;;;;;;23.11;49.89;96047.31;10484618;28;1984;-63
2023/09/06 22:18:48;;;;;;;;;;;;;;;23.12;49.93;96050.75;10487147;28;1460;-61
2023/09/06 22:23:49;;;;;;;;;;;;;;;23.12;49.90;96048.84;10491652;28;1582;-61
2023/09/06 22:28:51;;;;;;;;;;;;;;;23.12;49.74;96042.81;10510524;28;1601;-61
2023/09/06 22:33:52;;;;;;;;;;;;;;;23.11;49.61;96036.72;10480026;28;1917;-61
2023/09/06 22:38:52;;;;;;;;;;;;;;;23.12;49.68;96040.16;10473804;28;984;-62
2023/09/06 22:43:52;;;;;;;;;;;;;;;23.11;49.53;96030.63;10481923;28;1630;-61
2023/09/06 22:48:52;;;;;;;;;;;;;;;23.10;49.59;96029.84;10481750;28;2280;-61
2023/09/06 22:53:53;;;;;;;;;;;;;;;23.11;49.63;96031.44;10488775;28;5073;-62
2023/09/06 22:58:53;;;;;;;;;;;;;;;23.11;49.67;96026.16;10472529;28;1583;-61
2023/09/06 23:03:53;;;;;;;;;;;;;;;23.10;49.51;96029.84;10475927;28;1572;-61
2023/09/06 23:08:58;;;;;;;;;;;;;;;23.12;49.56;96032.22;10483734;28;1579;-61
2023/09/06 23:13:58;;;;;;;;;;;;;;;23.11;49.75;96030.63;10486207;28;1975;-62
2023/09/06 23:18:58;;;;;;;;;;;;;;;23.11;49.60;96035.94;10487532;28;1514;-61
2023/09/06 23:24:03;;;;;;;;;;;;;;;23.10;49.79;96039.66;10478362;28;1483;-61
2023/09/06 23:29:06;;;;;;;;;;;;;;;23.09;49.84;96033.56;10474582;28;1486;-61
2023/09/06 23:34:09;;;;;;;;;;;;;;;23.09;49.86;96032.78;10474319;28;1897;-61
2023/09/06 23:39:11;;;;;;;;;;;;;;;23.08;49.64;96026.69;10498382;28;1498;-62
2023/09/06 23:44:11;;;;;;;;;;;;;;;23.09;49.78;96027.50;10490552;28;1589;-61
2023/09/06 23:49:12;;;;;;;;;;;;;;;23.09;49.49;96038.88;10490125;28;1162;-62
2023/09/06 23:54:13;;;;;;;;;;;;;;;23.09;49.73;96035.44;10490531;28;5227;-62
2023/09/06 23:59:14;;;;;;;;;;;;;;;23.08;49.57;96036.50;10477951;28;1353;-61
